sensor_id;sensor_type;location;lat;lon;timestamp;P1;durP1;ratioP1;P2;durP2;ratioP2
17953;SDS011;9102;53.548;9.926;2022-09-25T00:02:12;48.90;;;25.15;;
17953;SDS011;9102;53.548;9.926;2022-09-25T00:04:39;41.63;;;23.02;;
17953;SDS011;9102;53.548;9.926;2022-09-25T00:07:06;50.03;;;26.33;;
17953;SDS011;9102;53.548;9.926;2022-09-25T00:09:32;48.95;;;24.95;;
17953;SDS011;9102;53.548;9.926;2022-09-25T00:11:59;44.97;;;23.83;;
17953;SDS011;9102;53.548;9.926;2022-09-25T00:14:26;46.50;;;23.08;;
17953;SDS011;9102;53.548;9.926;2022-09-25T00:16:53;44.25;;;22.65;;
17953;SDS011;9102;53.548;9.926;2022-09-25T00:19:21;49.08;;;23.20;;
17953;SDS011;9102;53.548;9.926;2022-09-25T00:22:05;45.10;;;23.45;;
17953;SDS011;9102;53.548;9.926;2022-09-25T00:24:33;47.25;;;24.25;;
17953;SDS011;9102;53.548;9.926;2022-09-25T00:26:59;46.30;;;23.90;;
17953;SDS011;9102;53.548;9.926;2022-09-25T00:29:26;46.63;;;25.00;;
17953;SDS011;9102;53.548;9.926;2022-09-25T00:31:54;38.03;;;21.67;;
17953;SDS011;9102;53.548;9.926;2022-09-25T00:34:22;47.80;;;23.33;;
17953;SDS011;9102;53.548;9.926;2022-09-25T00:36:49;43.08;;;23.52;;
17953;SDS011;9102;53.548;9.926;2022-09-25T00:39:16;48.53;;;25.05;;
17953;SDS011;9102;53.548;9.926;2022-09-25T00:41:43;51.30;;;26.17;;
17953;SDS011;9102;53.548;9.926;2022-09-25T00:47:17;58.35;;;28.08;;
17953;SDS011;9102;53.548;9.926;2022-09-25T00:49:49;61.38;;;27.95;;
17953;SDS011;9102;53.548;9.926;2022-09-25T00:52:18;65.38;;;29.23;;
17953;SDS011;9102;53.548;9.926;2022-09-25T00:54:45;58.40;;;27.45;;
17953;SDS011;9102;53.548;9.926;2022-09-25T00:57:17;60.55;;;28.60;;
17953;SDS011;9102;53.548;9.926;2022-09-25T00:59:48;63.22;;;28.58;;
17953;SDS011;9102;53.548;9.926;2022-09-25T01:02:18;66.05;;;29.92;;
17953;SDS011;9102;53.548;9.926;2022-09-25T01:04:53;60.88;;;29.00;;
17953;SDS011;9102;53.548;9.926;2022-09-25T01:07:22;58.45;;;28.15;;
17953;SDS011;9102;53.548;9.926;2022-09-25T01:09:49;63.13;;;29.20;;
17953;SDS011;9102;53.548;9.926;2022-09-25T01:12:16;54.65;;;25.17;;
17953;SDS011;9102;53.548;9.926;2022-09-25T01:14:43;53.08;;;27.08;;
17953;SDS011;9102;53.548;9.926;2022-09-25T01:17:11;52.38;;;26.33;;
17953;SDS011;9102;53.548;9.926;2022-09-25T01:19:46;53.30;;;26.25;;
17953;SDS011;9102;53.548;9.926;2022-09-25T01:22:26;53.67;;;27.13;;
17953;SDS011;9102;53.548;9.926;2022-09-25T01:25:03;48.05;;;24.52;;
17953;SDS011;9102;53.548;9.926;2022-09-25T01:27:50;47.88;;;24.45;;
17953;SDS011;9102;53.548;9.926;2022-09-25T01:30:31;49.75;;;25.83;;
17953;SDS011;9102;53.548;9.926;2022-09-25T01:33:04;56.05;;;26.55;;
17953;SDS011;9102;53.548;9.926;2022-09-25T01:39:05;54.67;;;26.02;;
17953;SDS011;9102;53.548;9.926;2022-09-25T01:41:40;51.97;;;25.05;;
17953;SDS011;9102;53.548;9.926;2022-09-25T01:44:11;58.03;;;25.98;;
17953;SDS011;9102;53.548;9.926;2022-09-25T01:46:43;56.63;;;27.73;;
17953;SDS011;9102;53.548;9.926;2022-09-25T01:49:13;49.53;;;24.77;;
17953;SDS011;9102;53.548;9.926;2022-09-25T01:51:46;54.63;;;25.10;;
17953;SDS011;9102;53.548;9.926;2022-09-25T01:54:17;56.00;;;25.55;;
17953;SDS011;9102;53.548;9.926;2022-09-25T01:56:49;57.97;;;26.42;;
17953;SDS011;9102;53.548;9.926;2022-09-25T01:59:22;59.50;;;26.90;;
17953;SDS011;9102;53.548;9.926;2022-09-25T02:01:56;60.72;;;26.50;;
17953;SDS011;9102;53.548;9.926;2022-09-25T02:04:27;63.55;;;27.38;;
17953;SDS011;9102;53.548;9.926;2022-09-25T02:06:58;74.00;;;28.77;;
17953;SDS011;9102;53.548;9.926;2022-09-25T02:09:28;60.47;;;26.85;;
17953;SDS011;9102;53.548;9.926;2022-09-25T02:12:00;88.57;;;30.42;;
17953;SDS011;9102;53.548;9.926;2022-09-25T02:14:33;82.07;;;29.50;;
17953;SDS011;9102;53.548;9.926;2022-09-25T02:17:05;78.72;;;30.13;;
17953;SDS011;9102;53.548;9.926;2022-09-25T02:19:36;82.10;;;28.88;;
17953;SDS011;9102;53.548;9.926;2022-09-25T02:22:21;77.43;;;28.88;;
17953;SDS011;9102;53.548;9.926;2022-09-25T02:24:51;97.32;;;30.60;;
17953;SDS011;9102;53.548;9.926;2022-09-25T02:27:23;99.97;;;30.83;;
17953;SDS011;9102;53.548;9.926;2022-09-25T02:29:52;94.18;;;30.20;;
17953;SDS011;9102;53.548;9.926;2022-09-25T02:32:23;110.57;;;31.92;;
17953;SDS011;9102;53.548;9.926;2022-09-25T02:34:54;93.47;;;30.45;;
17953;SDS011;9102;53.548;9.926;2022-09-25T02:37:22;101.88;;;32.45;;
17953;SDS011;9102;53.548;9.926;2022-09-25T02:39:50;83.72;;;29.80;;
17953;SDS011;9102;53.548;9.926;2022-09-25T02:42:23;88.43;;;30.17;;
17953;SDS011;9102;53.548;9.926;2022-09-25T02:45:01;84.47;;;28.23;;
17953;SDS011;9102;53.548;9.926;2022-09-25T02:47:49;90.30;;;28.90;;
17953;SDS011;9102;53.548;9.926;2022-09-25T02:50:28;90.43;;;29.40;;
17953;SDS011;9102;53.548;9.926;2022-09-25T02:53:03;85.38;;;27.77;;
17953;SDS011;9102;53.548;9.926;2022-09-25T02:55:36;86.82;;;28.73;;
17953;SDS011;9102;53.548;9.926;2022-09-25T02:58:07;87.78;;;28.50;;
17953;SDS011;9102;53.548;9.926;2022-09-25T03:00:39;85.90;;;27.73;;
17953;SDS011;9102;53.548;9.926;2022-09-25T03:03:10;83.15;;;26.52;;
17953;SDS011;9102;53.548;9.926;2022-09-25T03:05:40;104.20;;;29.00;;
17953;SDS011;9102;53.548;9.926;2022-09-25T03:08:07;98.43;;;29.05;;
17953;SDS011;9102;53.548;9.926;2022-09-25T03:10:52;114.72;;;30.67;;
17953;SDS011;9102;53.548;9.926;2022-09-25T03:13:20;114.22;;;29.38;;
17953;SDS011;9102;53.548;9.926;2022-09-25T03:15:51;89.95;;;27.75;;
17953;SDS011;9102;53.548;9.926;2022-09-25T03:18:24;116.47;;;31.58;;
17953;SDS011;9102;53.548;9.926;2022-09-25T03:20:52;120.55;;;32.10;;
17953;SDS011;9102;53.548;9.926;2022-09-25T03:23:19;101.43;;;29.85;;
17953;SDS011;9102;53.548;9.926;2022-09-25T03:25:46;133.43;;;33.50;;
17953;SDS011;9102;53.548;9.926;2022-09-25T03:28:13;137.50;;;32.90;;
17953;SDS011;9102;53.548;9.926;2022-09-25T03:30:40;125.55;;;32.83;;
17953;SDS011;9102;53.548;9.926;2022-09-25T03:33:07;145.80;;;34.35;;
17953;SDS011;9102;53.548;9.926;2022-09-25T03:35:36;94.32;;;29.58;;
17953;SDS011;9102;53.548;9.926;2022-09-25T03:38:04;140.05;;;33.55;;
17953;SDS011;9102;53.548;9.926;2022-09-25T03:40:32;126.72;;;31.75;;
17953;SDS011;9102;53.548;9.926;2022-09-25T03:42:59;119.80;;;31.27;;
17953;SDS011;9102;53.548;9.926;2022-09-25T03:45:26;148.60;;;35.40;;
17953;SDS011;9102;53.548;9.926;2022-09-25T03:47:53;102.40;;;29.25;;
17953;SDS011;9102;53.548;9.926;2022-09-25T03:50:19;165.50;;;35.05;;
17953;SDS011;9102;53.548;9.926;2022-09-25T03:52:48;177.35;;;35.47;;
17953;SDS011;9102;53.548;9.926;2022-09-25T03:55:14;170.48;;;36.08;;
17953;SDS011;9102;53.548;9.926;2022-09-25T03:57:41;158.60;;;34.72;;
17953;SDS011;9102;53.548;9.926;2022-09-25T04:00:08;102.60;;;29.30;;
17953;SDS011;9102;53.548;9.926;2022-09-25T04:02:36;160.40;;;34.63;;
17953;SDS011;9102;53.548;9.926;2022-09-25T04:05:03;126.32;;;30.45;;
17953;SDS011;9102;53.548;9.926;2022-09-25T04:07:31;152.50;;;34.38;;
17953;SDS011;9102;53.548;9.926;2022-09-25T04:09:59;142.45;;;33.05;;
17953;SDS011;9102;53.548;9.926;2022-09-25T04:12:26;163.77;;;33.20;;
17953;SDS011;9102;53.548;9.926;2022-09-25T04:14:52;159.05;;;34.88;;
17953;SDS011;9102;53.548;9.926;2022-09-25T04:17:19;153.15;;;32.80;;
17953;SDS011;9102;53.548;9.926;2022-09-25T04:19:46;144.70;;;33.63;;
17953;SDS011;9102;53.548;9.926;2022-09-25T04:22:13;170.32;;;34.17;;
17953;SDS011;9102;53.548;9.926;2022-09-25T04:24:39;153.57;;;33.80;;
17953;SDS011;9102;53.548;9.926;2022-09-25T04:27:17;165.77;;;37.17;;
17953;SDS011;9102;53.548;9.926;2022-09-25T04:29:45;174.50;;;37.08;;
17953;SDS011;9102;53.548;9.926;2022-09-25T04:32:13;160.82;;;35.60;;
17953;SDS011;9102;53.548;9.926;2022-09-25T04:34:57;159.82;;;36.83;;
17953;SDS011;9102;53.548;9.926;2022-09-25T04:37:24;125.07;;;32.13;;
17953;SDS011;9102;53.548;9.926;2022-09-25T04:39:51;154.98;;;36.22;;
17953;SDS011;9102;53.548;9.926;2022-09-25T04:42:20;157.60;;;37.38;;
17953;SDS011;9102;53.548;9.926;2022-09-25T04:44:48;133.30;;;34.03;;
17953;SDS011;9102;53.548;9.926;2022-09-25T04:47:16;129.13;;;32.20;;
17953;SDS011;9102;53.548;9.926;2022-09-25T04:49:43;150.05;;;35.80;;
17953;SDS011;9102;53.548;9.926;2022-09-25T04:52:10;138.93;;;34.35;;
17953;SDS011;9102;53.548;9.926;2022-09-25T04:54:38;111.70;;;31.30;;
17953;SDS011;9102;53.548;9.926;2022-09-25T04:57:04;111.80;;;32.00;;
17953;SDS011;9102;53.548;9.926;2022-09-25T04:59:32;127.28;;;33.08;;
17953;SDS011;9102;53.548;9.926;2022-09-25T05:01:59;114.00;;;31.58;;
17953;SDS011;9102;53.548;9.926;2022-09-25T05:04:26;138.77;;;34.90;;
17953;SDS011;9102;53.548;9.926;2022-09-25T05:06:53;115.57;;;32.40;;
17953;SDS011;9102;53.548;9.926;2022-09-25T05:09:20;118.10;;;31.90;;
17953;SDS011;9102;53.548;9.926;2022-09-25T05:11:46;117.25;;;31.88;;
17953;SDS011;9102;53.548;9.926;2022-09-25T05:14:13;112.40;;;32.30;;
17953;SDS011;9102;53.548;9.926;2022-09-25T05:16:41;105.35;;;31.58;;
17953;SDS011;9102;53.548;9.926;2022-09-25T05:19:08;113.85;;;33.03;;
17953;SDS011;9102;53.548;9.926;2022-09-25T05:21:35;124.07;;;34.15;;
17953;SDS011;9102;53.548;9.926;2022-09-25T05:24:02;146.80;;;36.90;;
17953;SDS011;9102;53.548;9.926;2022-09-25T05:26:29;112.22;;;34.72;;
17953;SDS011;9102;53.548;9.926;2022-09-25T05:28:58;140.52;;;37.00;;
17953;SDS011;9102;53.548;9.926;2022-09-25T05:31:25;106.15;;;32.63;;
17953;SDS011;9102;53.548;9.926;2022-09-25T05:33:54;120.13;;;34.75;;
17953;SDS011;9102;53.548;9.926;2022-09-25T05:36:21;122.57;;;35.67;;
17953;SDS011;9102;53.548;9.926;2022-09-25T05:38:48;140.90;;;39.13;;
17953;SDS011;9102;53.548;9.926;2022-09-25T05:41:15;132.93;;;37.22;;
17953;SDS011;9102;53.548;9.926;2022-09-25T05:43:43;128.02;;;37.40;;
17953;SDS011;9102;53.548;9.926;2022-09-25T05:46:12;147.05;;;40.15;;
17953;SDS011;9102;53.548;9.926;2022-09-25T05:48:39;129.05;;;38.78;;
17953;SDS011;9102;53.548;9.926;2022-09-25T05:51:07;163.32;;;41.03;;
17953;SDS011;9102;53.548;9.926;2022-09-25T05:53:35;113.50;;;36.60;;
17953;SDS011;9102;53.548;9.926;2022-09-25T05:56:02;149.13;;;39.35;;
17953;SDS011;9102;53.548;9.926;2022-09-25T05:58:30;144.88;;;39.85;;
17953;SDS011;9102;53.548;9.926;2022-09-25T06:00:59;126.95;;;39.13;;
17953;SDS011;9102;53.548;9.926;2022-09-25T06:03:27;111.65;;;37.55;;
17953;SDS011;9102;53.548;9.926;2022-09-25T06:05:54;139.68;;;39.63;;
17953;SDS011;9102;53.548;9.926;2022-09-25T06:08:22;116.18;;;39.10;;
17953;SDS011;9102;53.548;9.926;2022-09-25T06:10:50;137.25;;;40.13;;
17953;SDS011;9102;53.548;9.926;2022-09-25T06:13:19;108.57;;;37.22;;
17953;SDS011;9102;53.548;9.926;2022-09-25T06:15:46;133.50;;;39.47;;
17953;SDS011;9102;53.548;9.926;2022-09-25T06:18:16;148.98;;;42.10;;
17953;SDS011;9102;53.548;9.926;2022-09-25T06:20:43;140.27;;;40.67;;
17953;SDS011;9102;53.548;9.926;2022-09-25T06:23:10;149.27;;;42.45;;
17953;SDS011;9102;53.548;9.926;2022-09-25T06:25:39;132.25;;;40.70;;
17953;SDS011;9102;53.548;9.926;2022-09-25T06:28:06;117.97;;;39.58;;
17953;SDS011;9102;53.548;9.926;2022-09-25T06:30:33;134.20;;;41.67;;
17953;SDS011;9102;53.548;9.926;2022-09-25T06:33:02;129.23;;;39.65;;
17953;SDS011;9102;53.548;9.926;2022-09-25T06:35:31;143.85;;;41.53;;
17953;SDS011;9102;53.548;9.926;2022-09-25T06:37:59;138.38;;;41.80;;
17953;SDS011;9102;53.548;9.926;2022-09-25T06:40:27;129.88;;;41.22;;
17953;SDS011;9102;53.548;9.926;2022-09-25T06:42:56;126.22;;;41.20;;
17953;SDS011;9102;53.548;9.926;2022-09-25T06:45:24;135.15;;;42.05;;
17953;SDS011;9102;53.548;9.926;2022-09-25T06:47:51;100.75;;;36.42;;
17953;SDS011;9102;53.548;9.926;2022-09-25T06:50:23;128.88;;;41.08;;
17953;SDS011;9102;53.548;9.926;2022-09-25T06:52:55;120.97;;;40.35;;
17953;SDS011;9102;53.548;9.926;2022-09-25T06:55:22;108.72;;;36.50;;
17953;SDS011;9102;53.548;9.926;2022-09-25T06:57:49;111.10;;;39.05;;
17953;SDS011;9102;53.548;9.926;2022-09-25T07:00:17;133.10;;;41.03;;
17953;SDS011;9102;53.548;9.926;2022-09-25T07:02:44;109.07;;;37.08;;
17953;SDS011;9102;53.548;9.926;2022-09-25T07:05:28;125.45;;;39.95;;
17953;SDS011;9102;53.548;9.926;2022-09-25T07:07:55;115.38;;;37.65;;
17953;SDS011;9102;53.548;9.926;2022-09-25T07:10:22;105.97;;;38.05;;
17953;SDS011;9102;53.548;9.926;2022-09-25T07:12:49;94.93;;;36.17;;
17953;SDS011;9102;53.548;9.926;2022-09-25T07:15:15;102.53;;;37.33;;
17953;SDS011;9102;53.548;9.926;2022-09-25T07:17:44;95.43;;;37.15;;
17953;SDS011;9102;53.548;9.926;2022-09-25T07:20:11;88.55;;;34.35;;
17953;SDS011;9102;53.548;9.926;2022-09-25T07:22:39;93.95;;;36.83;;
17953;SDS011;9102;53.548;9.926;2022-09-25T07:25:07;62.65;;;26.15;;
17953;SDS011;9102;53.548;9.926;2022-09-25T07:27:34;42.22;;;18.50;;
17953;SDS011;9102;53.548;9.926;2022-09-25T07:30:02;27.95;;;13.85;;
17953;SDS011;9102;53.548;9.926;2022-09-25T07:32:31;29.27;;;12.88;;
17953;SDS011;9102;53.548;9.926;2022-09-25T07:34:58;20.00;;;11.10;;
17953;SDS011;9102;53.548;9.926;2022-09-25T07:37:27;22.05;;;10.65;;
17953;SDS011;9102;53.548;9.926;2022-09-25T07:39:54;20.75;;;11.13;;
17953;SDS011;9102;53.548;9.926;2022-09-25T07:42:21;17.70;;;10.18;;
17953;SDS011;9102;53.548;9.926;2022-09-25T07:44:47;17.60;;;10.25;;
17953;SDS011;9102;53.548;9.926;2022-09-25T07:47:14;16.55;;;9.90;;
17953;SDS011;9102;53.548;9.926;2022-09-25T07:49:44;21.08;;;11.20;;
17953;SDS011;9102;53.548;9.926;2022-09-25T07:52:11;16.35;;;9.40;;
17953;SDS011;9102;53.548;9.926;2022-09-25T07:54:38;16.73;;;9.80;;
17953;SDS011;9102;53.548;9.926;2022-09-25T07:57:07;22.50;;;10.63;;
17953;SDS011;9102;53.548;9.926;2022-09-25T07:59:34;22.17;;;11.50;;
17953;SDS011;9102;53.548;9.926;2022-09-25T08:02:00;15.52;;;9.88;;
17953;SDS011;9102;53.548;9.926;2022-09-25T08:04:28;21.02;;;11.73;;
17953;SDS011;9102;53.548;9.926;2022-09-25T08:06:57;19.30;;;12.07;;
17953;SDS011;9102;53.548;9.926;2022-09-25T08:09:24;21.67;;;11.98;;
17953;SDS011;9102;53.548;9.926;2022-09-25T08:11:52;21.92;;;12.50;;
17953;SDS011;9102;53.548;9.926;2022-09-25T08:14:18;23.20;;;13.95;;
17953;SDS011;9102;53.548;9.926;2022-09-25T08:16:46;24.77;;;14.10;;
17953;SDS011;9102;53.548;9.926;2022-09-25T08:19:13;24.42;;;14.23;;
17953;SDS011;9102;53.548;9.926;2022-09-25T08:21:42;29.20;;;16.00;;
17953;SDS011;9102;53.548;9.926;2022-09-25T08:27:33;27.95;;;16.65;;
17953;SDS011;9102;53.548;9.926;2022-09-25T08:30:04;21.80;;;14.55;;
17953;SDS011;9102;53.548;9.926;2022-09-25T08:32:32;28.95;;;15.35;;
17953;SDS011;9102;53.548;9.926;2022-09-25T08:34:59;23.63;;;15.15;;
17953;SDS011;9102;53.548;9.926;2022-09-25T08:37:26;29.25;;;16.10;;
17953;SDS011;9102;53.548;9.926;2022-09-25T08:39:53;24.02;;;14.63;;
17953;SDS011;9102;53.548;9.926;2022-09-25T08:42:21;30.35;;;17.10;;
17953;SDS011;9102;53.548;9.926;2022-09-25T08:44:56;21.50;;;13.02;;
17953;SDS011;9102;53.548;9.926;2022-09-25T08:47:43;27.27;;;14.18;;
17953;SDS011;9102;53.548;9.926;2022-09-25T08:50:28;27.58;;;13.73;;
17953;SDS011;9102;53.548;9.926;2022-09-25T08:52:56;26.63;;;14.25;;
17953;SDS011;9102;53.548;9.926;2022-09-25T08:55:29;22.85;;;13.02;;
17953;SDS011;9102;53.548;9.926;2022-09-25T08:58:13;26.67;;;13.52;;
17953;SDS011;9102;53.548;9.926;2022-09-25T09:00:47;24.30;;;13.20;;
17953;SDS011;9102;53.548;9.926;2022-09-25T09:03:14;24.10;;;13.45;;
17953;SDS011;9102;53.548;9.926;2022-09-25T09:05:42;26.58;;;14.07;;
17953;SDS011;9102;53.548;9.926;2022-09-25T09:08:11;24.20;;;13.63;;
17953;SDS011;9102;53.548;9.926;2022-09-25T09:10:42;21.98;;;14.05;;
17953;SDS011;9102;53.548;9.926;2022-09-25T09:13:13;22.48;;;13.38;;
17953;SDS011;9102;53.548;9.926;2022-09-25T09:15:46;25.60;;;13.85;;
17953;SDS011;9102;53.548;9.926;2022-09-25T09:18:19;24.27;;;13.90;;
17953;SDS011;9102;53.548;9.926;2022-09-25T09:20:50;24.08;;;13.50;;
17953;SDS011;9102;53.548;9.926;2022-09-25T09:23:19;21.42;;;13.65;;
17953;SDS011;9102;53.548;9.926;2022-09-25T09:25:51;19.38;;;12.75;;
17953;SDS011;9102;53.548;9.926;2022-09-25T09:28:42;22.85;;;13.82;;
17953;SDS011;9102;53.548;9.926;2022-09-25T09:31:29;21.30;;;14.18;;
17953;SDS011;9102;53.548;9.926;2022-09-25T09:34:12;27.95;;;15.52;;
17953;SDS011;9102;53.548;9.926;2022-09-25T09:37:04;23.73;;;13.80;;
17953;SDS011;9102;53.548;9.926;2022-09-25T09:39:41;25.05;;;13.75;;
17953;SDS011;9102;53.548;9.926;2022-09-25T09:42:32;25.90;;;14.80;;
17953;SDS011;9102;53.548;9.926;2022-09-25T09:45:12;26.27;;;14.85;;
17953;SDS011;9102;53.548;9.926;2022-09-25T09:47:49;23.80;;;13.70;;
17953;SDS011;9102;53.548;9.926;2022-09-25T09:50:26;31.55;;;15.10;;
17953;SDS011;9102;53.548;9.926;2022-09-25T09:53:09;29.75;;;14.85;;
17953;SDS011;9102;53.548;9.926;2022-09-25T09:55:46;23.95;;;15.25;;
17953;SDS011;9102;53.548;9.926;2022-09-25T09:58:18;26.77;;;14.88;;
17953;SDS011;9102;53.548;9.926;2022-09-25T10:00:48;27.50;;;15.90;;
17953;SDS011;9102;53.548;9.926;2022-09-25T10:03:17;29.58;;;15.57;;
17953;SDS011;9102;53.548;9.926;2022-09-25T10:05:49;28.00;;;16.05;;
17953;SDS011;9102;53.548;9.926;2022-09-25T10:08:20;28.58;;;16.40;;
17953;SDS011;9102;53.548;9.926;2022-09-25T10:10:48;36.08;;;17.98;;
17953;SDS011;9102;53.548;9.926;2022-09-25T10:13:19;28.38;;;16.50;;
17953;SDS011;9102;53.548;9.926;2022-09-25T10:15:49;29.90;;;17.15;;
17953;SDS011;9102;53.548;9.926;2022-09-25T10:18:20;28.73;;;16.77;;
17953;SDS011;9102;53.548;9.926;2022-09-25T10:20:56;30.13;;;17.58;;
17953;SDS011;9102;53.548;9.926;2022-09-25T10:23:32;33.03;;;17.48;;
17953;SDS011;9102;53.548;9.926;2022-09-25T10:26:02;31.95;;;17.30;;
17953;SDS011;9102;53.548;9.926;2022-09-25T10:28:31;31.27;;;18.10;;
17953;SDS011;9102;53.548;9.926;2022-09-25T10:31:00;31.90;;;19.45;;
17953;SDS011;9102;53.548;9.926;2022-09-25T10:33:32;27.35;;;16.40;;
17953;SDS011;9102;53.548;9.926;2022-09-25T10:35:59;29.05;;;17.13;;
17953;SDS011;9102;53.548;9.926;2022-09-25T10:38:36;33.13;;;18.05;;
17953;SDS011;9102;53.548;9.926;2022-09-25T10:41:06;26.80;;;15.48;;
17953;SDS011;9102;53.548;9.926;2022-09-25T10:43:48;27.30;;;15.95;;
17953;SDS011;9102;53.548;9.926;2022-09-25T10:46:17;30.25;;;16.40;;
17953;SDS011;9102;53.548;9.926;2022-09-25T10:49:16;29.45;;;16.15;;
17953;SDS011;9102;53.548;9.926;2022-09-25T10:52:03;24.80;;;15.48;;
17953;SDS011;9102;53.548;9.926;2022-09-25T10:54:31;25.92;;;15.35;;
17953;SDS011;9102;53.548;9.926;2022-09-25T10:56:58;27.08;;;15.52;;
17953;SDS011;9102;53.548;9.926;2022-09-25T10:59:26;21.95;;;14.98;;
17953;SDS011;9102;53.548;9.926;2022-09-25T11:01:54;26.38;;;14.82;;
17953;SDS011;9102;53.548;9.926;2022-09-25T11:04:23;22.30;;;13.77;;
17953;SDS011;9102;53.548;9.926;2022-09-25T11:06:53;31.80;;;16.30;;
17953;SDS011;9102;53.548;9.926;2022-09-25T11:09:24;19.80;;;13.30;;
17953;SDS011;9102;53.548;9.926;2022-09-25T11:11:52;26.08;;;13.00;;
17953;SDS011;9102;53.548;9.926;2022-09-25T11:14:31;25.73;;;13.35;;
17953;SDS011;9102;53.548;9.926;2022-09-25T11:17:01;26.20;;;14.43;;
17953;SDS011;9102;53.548;9.926;2022-09-25T11:19:32;27.67;;;14.63;;
17953;SDS011;9102;53.548;9.926;2022-09-25T11:22:10;29.52;;;15.98;;
17953;SDS011;9102;53.548;9.926;2022-09-25T11:24:47;26.08;;;14.90;;
17953;SDS011;9102;53.548;9.926;2022-09-25T11:27:24;26.02;;;14.27;;
17953;SDS011;9102;53.548;9.926;2022-09-25T11:29:59;20.45;;;12.88;;
17953;SDS011;9102;53.548;9.926;2022-09-25T11:32:31;19.38;;;12.27;;
17953;SDS011;9102;53.548;9.926;2022-09-25T11:35:20;25.05;;;13.70;;
17953;SDS011;9102;53.548;9.926;2022-09-25T11:38:00;29.52;;;13.27;;
17953;SDS011;9102;53.548;9.926;2022-09-25T11:40:37;20.33;;;12.18;;
17953;SDS011;9102;53.548;9.926;2022-09-25T11:43:30;23.40;;;11.00;;
17953;SDS011;9102;53.548;9.926;2022-09-25T11:46:06;18.83;;;10.95;;
17953;SDS011;9102;53.548;9.926;2022-09-25T11:48:44;18.92;;;10.45;;
17953;SDS011;9102;53.548;9.926;2022-09-25T11:51:23;20.73;;;11.30;;
17953;SDS011;9102;53.548;9.926;2022-09-25T11:54:01;19.85;;;9.55;;
17953;SDS011;9102;53.548;9.926;2022-09-25T11:56:39;25.95;;;13.55;;
17953;SDS011;9102;53.548;9.926;2022-09-25T11:59:16;15.65;;;8.85;;
17953;SDS011;9102;53.548;9.926;2022-09-25T12:01:56;17.77;;;9.20;;
17953;SDS011;9102;53.548;9.926;2022-09-25T12:04:37;10.35;;;6.97;;
17953;SDS011;9102;53.548;9.926;2022-09-25T12:07:16;20.73;;;10.25;;
17953;SDS011;9102;53.548;9.926;2022-09-25T12:09:57;13.68;;;7.47;;
17953;SDS011;9102;53.548;9.926;2022-09-25T12:12:31;13.40;;;8.23;;
17953;SDS011;9102;53.548;9.926;2022-09-25T12:15:08;14.02;;;8.73;;
17953;SDS011;9102;53.548;9.926;2022-09-25T12:17:43;17.00;;;9.63;;
17953;SDS011;9102;53.548;9.926;2022-09-25T12:20:21;18.08;;;11.43;;
17953;SDS011;9102;53.548;9.926;2022-09-25T12:22:57;19.20;;;10.80;;
17953;SDS011;9102;53.548;9.926;2022-09-25T12:25:39;15.88;;;9.65;;
17953;SDS011;9102;53.548;9.926;2022-09-25T12:28:18;17.20;;;10.98;;
17953;SDS011;9102;53.548;9.926;2022-09-25T12:30:53;16.25;;;9.55;;
17953;SDS011;9102;53.548;9.926;2022-09-25T12:33:31;15.93;;;9.45;;
17953;SDS011;9102;53.548;9.926;2022-09-25T12:36:09;28.00;;;15.60;;
17953;SDS011;9102;53.548;9.926;2022-09-25T12:38:43;14.35;;;9.60;;
17953;SDS011;9102;53.548;9.926;2022-09-25T12:41:21;17.25;;;9.35;;
17953;SDS011;9102;53.548;9.926;2022-09-25T12:43:55;13.57;;;8.98;;
17953;SDS011;9102;53.548;9.926;2022-09-25T12:46:27;14.15;;;9.13;;
17953;SDS011;9102;53.548;9.926;2022-09-25T12:49:01;15.38;;;9.48;;
17953;SDS011;9102;53.548;9.926;2022-09-25T12:51:44;14.63;;;9.43;;
17953;SDS011;9102;53.548;9.926;2022-09-25T12:54:23;10.20;;;6.07;;
17953;SDS011;9102;53.548;9.926;2022-09-25T12:56:55;10.90;;;6.25;;
17953;SDS011;9102;53.548;9.926;2022-09-25T12:59:27;11.75;;;6.05;;
17953;SDS011;9102;53.548;9.926;2022-09-25T13:01:59;12.02;;;7.35;;
17953;SDS011;9102;53.548;9.926;2022-09-25T13:07:20;11.77;;;5.47;;
17953;SDS011;9102;53.548;9.926;2022-09-25T13:09:53;11.00;;;5.47;;
17953;SDS011;9102;53.548;9.926;2022-09-25T13:12:23;11.00;;;4.93;;
17953;SDS011;9102;53.548;9.926;2022-09-25T13:14:58;8.73;;;5.20;;
17953;SDS011;9102;53.548;9.926;2022-09-25T13:17:30;8.68;;;5.00;;
17953;SDS011;9102;53.548;9.926;2022-09-25T13:23:01;8.05;;;4.95;;
17953;SDS011;9102;53.548;9.926;2022-09-25T13:25:38;7.18;;;4.70;;
17953;SDS011;9102;53.548;9.926;2022-09-25T13:28:07;12.18;;;4.07;;
17953;SDS011;9102;53.548;9.926;2022-09-25T13:30:51;6.97;;;4.20;;
17953;SDS011;9102;53.548;9.926;2022-09-25T13:33:26;6.65;;;3.97;;
17953;SDS011;9102;53.548;9.926;2022-09-25T13:36:04;6.00;;;3.88;;
17953;SDS011;9102;53.548;9.926;2022-09-25T13:38:39;10.57;;;4.10;;
17953;SDS011;9102;53.548;9.926;2022-09-25T13:41:28;10.45;;;4.35;;
17953;SDS011;9102;53.548;9.926;2022-09-25T13:50:26;9.07;;;2.90;;
17953;SDS011;9102;53.548;9.926;2022-09-25T13:53:26;6.15;;;2.92;;
17953;SDS011;9102;53.548;9.926;2022-09-25T13:59:25;5.57;;;3.45;;
17953;SDS011;9102;53.548;9.926;2022-09-25T14:05:03;8.63;;;3.60;;
17953;SDS011;9102;53.548;9.926;2022-09-25T14:07:31;6.20;;;2.85;;
17953;SDS011;9102;53.548;9.926;2022-09-25T14:09:59;9.05;;;3.10;;
17953;SDS011;9102;53.548;9.926;2022-09-25T14:12:36;5.63;;;2.95;;
17953;SDS011;9102;53.548;9.926;2022-09-25T14:15:08;12.15;;;4.18;;
17953;SDS011;9102;53.548;9.926;2022-09-25T14:17:45;6.40;;;3.20;;
17953;SDS011;9102;53.548;9.926;2022-09-25T14:20:31;9.07;;;3.70;;
17953;SDS011;9102;53.548;9.926;2022-09-25T14:23:01;5.47;;;3.25;;
17953;SDS011;9102;53.548;9.926;2022-09-25T14:25:32;8.48;;;4.00;;
17953;SDS011;9102;53.548;9.926;2022-09-25T14:28:14;8.65;;;3.17;;
17953;SDS011;9102;53.548;9.926;2022-09-25T14:30:51;7.80;;;3.28;;
17953;SDS011;9102;53.548;9.926;2022-09-25T14:33:31;8.80;;;3.28;;
17953;SDS011;9102;53.548;9.926;2022-09-25T14:36:10;6.35;;;3.05;;
17953;SDS011;9102;53.548;9.926;2022-09-25T14:38:59;8.57;;;3.13;;
17953;SDS011;9102;53.548;9.926;2022-09-25T14:44:37;6.28;;;3.17;;
17953;SDS011;9102;53.548;9.926;2022-09-25T14:47:16;7.30;;;3.10;;
17953;SDS011;9102;53.548;9.926;2022-09-25T14:49:44;6.88;;;2.75;;
17953;SDS011;9102;53.548;9.926;2022-09-25T14:52:15;8.02;;;2.50;;
17953;SDS011;9102;53.548;9.926;2022-09-25T14:54:48;6.18;;;2.40;;
17953;SDS011;9102;53.548;9.926;2022-09-25T14:57:20;8.20;;;1.98;;
17953;SDS011;9102;53.548;9.926;2022-09-25T14:59:52;6.35;;;2.70;;
17953;SDS011;9102;53.548;9.926;2022-09-25T15:02:22;7.75;;;2.45;;
17953;SDS011;9102;53.548;9.926;2022-09-25T15:04:56;5.25;;;1.65;;
17953;SDS011;9102;53.548;9.926;2022-09-25T15:07:24;7.88;;;1.83;;
17953;SDS011;9102;53.548;9.926;2022-09-25T15:09:52;4.70;;;1.92;;
17953;SDS011;9102;53.548;9.926;2022-09-25T15:12:23;10.75;;;1.52;;
17953;SDS011;9102;53.548;9.926;2022-09-25T15:14:59;6.18;;;1.60;;
17953;SDS011;9102;53.548;9.926;2022-09-25T15:17:30;5.35;;;1.70;;
17953;SDS011;9102;53.548;9.926;2022-09-25T15:19:58;9.43;;;2.50;;
17953;SDS011;9102;53.548;9.926;2022-09-25T15:22:29;6.55;;;1.65;;
17953;SDS011;9102;53.548;9.926;2022-09-25T15:24:59;6.18;;;1.40;;
17953;SDS011;9102;53.548;9.926;2022-09-25T15:27:27;7.78;;;1.38;;
17953;SDS011;9102;53.548;9.926;2022-09-25T15:29:55;5.35;;;1.40;;
17953;SDS011;9102;53.548;9.926;2022-09-25T15:32:25;5.65;;;1.50;;
17953;SDS011;9102;53.548;9.926;2022-09-25T15:37:49;3.33;;;1.00;;